Time;durP1;ratioP1;P1;durP2;ratioP2;P2;SDS_P1;SDS_P2;PMS_P1;PMS_P2;Temp;Humidity;BMP_temperature;BMP_pressure;BME280_temperature;BME280_humidity;BME280_pressure;Samples;Min_cycle;Max_cycle;Signal;HPM_P1;HPM_P2
2024/01/31 00:00:12;;;;;;;53.35;35.15;;;;;;;4.01;80.03;103127.78;4938949;29;20048;-83
2024/01/31 00:02:39;;;;;;;53.35;34.17;;;;;;;4.15;80.11;103131.88;4925988;29;20298;-83
2024/01/31 00:05:06;;;;;;;52.65;34.42;;;;;;;4.10;80.28;103154.75;4925513;29;20044;-80
2024/01/31 00:07:33;;;;;;;50.80;33.47;;;;;;;4.07;80.44;103159.19;4926854;29;20493;-80
2024/01/31 00:10:01;;;;;;;53.08;33.78;;;;;;;3.88;81.34;103136.81;4918736;29;20043;-80
2024/01/31 00:12:27;;;;;;;50.58;33.75;;;;;;;3.96;81.28;103155.94;4917841;29;20058;-81
2024/01/31 00:14:54;;;;;;;50.25;32.83;;;;;;;3.77;81.47;103120.41;4916660;29;20516;-79
2024/01/31 00:17:21;;;;;;;56.22;34.10;;;;;;;3.88;81.66;103149.09;4914884;29;20154;-80
2024/01/31 00:19:48;;;;;;;47.15;33.03;;;;;;;3.62;81.56;103108.44;4914119;29;20582;-80
2024/01/31 00:22:15;;;;;;;52.80;34.50;;;;;;;3.63;82.04;103121.53;4915818;29;20059;-79
2024/01/31 00:24:42;;;;;;;49.65;33.42;;;;;;;3.83;82.07;103154.44;4914398;29;20054;-81
2024/01/31 00:27:09;;;;;;;46.17;32.67;;;;;;;3.82;82.22;103155.34;4925791;28;20138;-80
2024/01/31 00:29:36;;;;;;;48.50;32.50;;;;;;;3.81;82.53;103148.34;4933244;29;20055;-81
2024/01/31 00:32:05;;;;;;;53.50;32.08;;;;;;;3.80;82.54;103151.88;4914902;29;20055;-81
2024/01/31 00:34:32;;;;;;;46.45;30.67;;;;;;;3.77;82.29;103147.53;4915896;29;20048;-81
2024/01/31 00:36:59;;;;;;;52.15;32.03;;;;;;;3.69;82.50;103148.56;4932320;29;20321;-80
2024/01/31 00:39:31;;;;;;;50.28;31.85;;;;;;;3.73;82.37;103151.13;4915237;29;20490;-81
2024/01/31 00:41:58;;;;;;;47.38;28.70;;;;;;;3.53;82.66;103116.50;4915487;29;20051;-79
2024/01/31 00:44:26;;;;;;;47.22;32.10;;;;;;;3.34;82.30;103094.97;4911813;29;20314;-82
2024/01/31 00:46:53;;;;;;;49.30;31.05;;;;;;;3.57;82.17;103139.19;4913644;29;20510;-81
2024/01/31 00:49:21;;;;;;;45.17;30.65;;;;;;;3.26;82.15;103083.75;4900265;29;20048;-82
2024/01/31 00:51:52;;;;;;;45.15;31.75;;;;;;;3.25;82.26;103076.75;4901336;29;20123;-80
2024/01/31 00:54:20;;;;;;;47.10;30.10;;;;;;;3.64;82.21;103144.31;4900960;29;20502;-81
2024/01/31 00:56:47;;;;;;;47.13;29.73;;;;;;;3.16;81.97;103055.03;4913705;29;20047;-81
2024/01/31 00:59:13;;;;;;;47.42;30.90;;;;;;;3.66;81.86;103146.03;4933922;29;20138;-82
2024/01/31 01:01:40;;;;;;;44.42;29.70;;;;;;;3.56;82.47;103133.06;4916695;29;20212;-81
2024/01/31 01:04:07;;;;;;;42.58;28.23;;;;;;;3.69;82.58;103143.31;4914368;29;20063;-80
2024/01/31 01:06:34;;;;;;;45.17;29.85;;;;;;;3.69;82.67;103143.31;4914331;29;20471;-81
2024/01/31 01:09:01;;;;;;;44.40;29.85;;;;;;;3.28;82.20;103068.84;4932047;29;20047;-81
2024/01/31 01:11:31;;;;;;;47.25;29.92;;;;;;;3.67;82.06;103135.50;4930438;29;20462;-80
2024/01/31 01:13:58;;;;;;;44.05;28.55;;;;;;;3.48;81.94;103100.84;4926824;29;20060;-80
2024/01/31 01:16:24;;;;;;;43.38;27.75;;;;;;;3.32;82.43;103084.47;4895483;29;20107;-81
2024/01/31 01:18:51;;;;;;;40.10;27.20;;;;;;;3.59;82.03;103119.88;4895399;29;20048;-81
2024/01/31 01:21:18;;;;;;;42.38;26.67;;;;;;;3.45;82.45;103097.38;4895437;29;20058;-81
2024/01/31 01:23:45;;;;;;;36.70;25.40;;;;;;;3.43;82.28;103108.78;4914344;29;20294;-80
2024/01/31 01:26:12;;;;;;;39.05;26.20;;;;;;;3.58;82.20;103122.53;4926660;29;20071;-80
2024/01/31 01:28:39;;;;;;;35.45;26.02;;;;;;;3.45;82.63;103095.66;4933016;28;20476;-80
2024/01/31 01:31:05;;;;;;;41.17;27.98;;;;;;;3.61;82.29;103118.06;4938168;28;20351;-82
2024/01/31 01:33:32;;;;;;;39.33;26.75;;;;;;;3.49;82.09;103099.91;4914216;29;20047;-81
2024/01/31 01:35:59;;;;;;;41.05;25.65;;;;;;;3.49;82.01;103118.31;4914187;29;20064;-80
2024/01/31 01:38:26;;;;;;;42.55;27.17;;;;;;;3.51;82.07;103100.75;4913950;29;20047;-82
2024/01/31 01:40:52;;;;;;;38.20;26.15;;;;;;;3.42;81.71;103080.81;4930999;29;20138;-81
2024/01/31 01:43:20;;;;;;;40.30;26.20;;;;;;;3.70;81.82;103118.81;4914117;29;20047;-80
2024/01/31 01:45:48;;;;;;;40.92;25.25;;;;;;;3.70;81.83;103119.66;4913865;29;20494;-82
2024/01/31 01:48:18;;;;;;;38.67;25.15;;;;;;;3.24;82.05;103052.28;4930583;29;20148;-81
2024/01/31 01:50:45;;;;;;;41.38;24.92;;;;;;;3.66;81.67;103117.97;4914064;29;20517;-81
2024/01/31 01:53:12;;;;;;;38.85;26.13;;;;;;;3.54;81.66;103103.31;4913885;29;20557;-80
2024/01/31 01:55:41;;;;;;;45.08;27.60;;;;;;;3.70;81.65;103130.16;4914194;29;20074;-81
2024/01/31 01:58:09;;;;;;;42.03;25.75;;;;;;;3.60;81.37;103111.09;4913776;29;20059;-80
2024/01/31 02:00:36;;;;;;;34.97;25.70;;;;;;;3.21;81.52;103031.34;4931037;29;20047;-81
2024/01/31 02:03:05;;;;;;;40.47;26.75;;;;;;;3.77;81.33;103123.03;4912830;29;20411;-81
2024/01/31 02:05:32;;;;;;;43.47;27.98;;;;;;;3.60;81.57;103102.34;4917331;29;20135;-80
2024/01/31 02:07:59;;;;;;;49.80;26.33;;;;;;;3.74;81.58;103121.34;4924387;29;20082;-80
2024/01/31 02:10:26;;;;;;;41.78;24.75;;;;;;;3.62;81.45;103096.19;4916786;29;20056;-80
2024/01/31 02:12:53;;;;;;;51.17;26.92;;;;;;;3.33;81.54;103052.09;4930666;29;20048;-81
2024/01/31 02:15:20;;;;;;;38.95;24.23;;;;;;;3.51;81.92;103082.38;4913523;29;20395;-80
2024/01/31 02:17:46;;;;;;;46.28;25.40;;;;;;;3.01;81.64;103002.84;4913493;29;20058;-81
2024/01/31 02:20:15;;;;;;;41.45;26.20;;;;;;;3.65;81.66;103097.88;4929090;29;20455;-79
2024/01/31 02:22:47;;;;;;;42.13;25.50;;;;;;;3.72;81.17;103104.75;4929461;29;20110;-81
2024/01/31 02:25:15;;;;;;;35.50;24.30;;;;;;;3.65;81.40;103090.00;4929389;29;20478;-80
2024/01/31 02:27:41;;;;;;;42.63;24.55;;;;;;;2.99;81.28;102986.25;4944750;28;20065;-81
2024/01/31 02:30:09;;;;;;;37.67;25.58;;;;;;;3.64;81.46;103102.28;4927660;29;20086;-80
2024/01/31 02:32:36;;;;;;;41.92;24.77;;;;;;;3.63;81.71;103102.28;4913999;29;20054;-81
2024/01/31 02:35:04;;;;;;;35.20;24.20;;;;;;;3.69;81.57;103109.16;4913777;29;20078;-81
2024/01/31 02:37:31;;;;;;;35.08;24.00;;;;;;;3.69;81.76;103107.44;4913246;29;20058;-80
2024/01/31 02:39:59;;;;;;;37.33;25.05;;;;;;;3.24;81.59;103030.41;4913394;29;20048;-81
2024/01/31 02:42:26;;;;;;;38.55;24.25;;;;;;;3.51;81.45;103069.25;4913673;29;20051;-80
2024/01/31 02:44:53;;;;;;;37.38;25.08;;;;;;;3.63;80.96;103082.13;4915670;29;20135;-80
2024/01/31 02:47:20;;;;;;;34.00;24.27;;;;;;;3.78;80.92;103101.09;4894707;29;20048;-81
2024/01/31 02:49:46;;;;;;;33.88;22.58;;;;;;;3.64;81.25;103072.47;4915077;29;20056;-81
2024/01/31 02:52:13;;;;;;;33.92;22.88;;;;;;;3.77;81.20;103091.50;4898304;29;20056;-80
2024/01/31 02:54:40;;;;;;;35.08;22.17;;;;;;;3.73;80.95;103085.44;4914072;29;20253;-80
2024/01/31 02:57:07;;;;;;;32.70;23.83;;;;;;;3.73;80.02;103081.94;4935800;28;20507;-80
2024/01/31 02:59:33;;;;;;;35.92;23.67;;;;;;;3.61;80.39;103070.78;4935892;29;20134;-81
2024/01/31 03:02:00;;;;;;;34.70;23.20;;;;;;;3.23;80.77;103003.31;4917499;29;20067;-81
2024/01/31 03:04:27;;;;;;;36.15;22.83;;;;;;;3.64;81.00;103078.63;4934629;29;20139;-81
2024/01/31 03:06:54;;;;;;;35.15;22.83;;;;;;;3.67;81.04;103089.97;4916806;29;20051;-81
2024/01/31 03:09:21;;;;;;;41.35;24.02;;;;;;;3.67;80.30;103085.56;4917042;29;20052;-81
2024/01/31 03:11:48;;;;;;;33.97;22.98;;;;;;;3.72;80.39;103081.09;4917147;29;20058;-80
2024/01/31 03:14:15;;;;;;;33.78;22.92;;;;;;;3.68;79.70;103073.31;4913963;29;20060;-80
2024/01/31 03:16:41;;;;;;;35.38;23.08;;;;;;;3.59;80.37;103058.56;4913291;29;20052;-80
2024/01/31 03:19:08;;;;;;;32.08;22.40;;;;;;;3.60;80.78;103061.19;4914100;29;20153;-82
2024/01/31 03:21:35;;;;;;;38.75;22.85;;;;;;;3.73;80.51;103072.31;4913798;29;20605;-80
2024/01/31 03:24:02;;;;;;;35.28;22.05;;;;;;;3.73;80.78;103076.69;4913558;29;20059;-81
2024/01/31 03:26:29;;;;;;;34.47;22.05;;;;;;;2.47;80.84;102874.44;4922041;28;20054;-81
2024/01/31 03:28:56;;;;;;;34.67;23.80;;;;;;;3.68;80.94;103079.41;4916498;29;20682;-80
2024/01/31 03:31:23;;;;;;;37.67;23.25;;;;;;;3.69;80.50;103075.00;4916212;29;20454;-81
2024/01/31 03:33:50;;;;;;;36.63;23.42;;;;;;;3.22;79.45;102991.91;4916328;29;20058;-83
2024/01/31 03:36:16;;;;;;;33.00;22.63;;;;;;;3.73;79.36;103071.44;4925171;29;20485;-80
2024/01/31 03:38:43;;;;;;;33.45;22.67;;;;;;;3.75;79.30;103062.63;4931992;29;20062;-81
2024/01/31 03:41:10;;;;;;;31.90;22.13;;;;;;;3.75;80.18;103072.28;4932029;29;20558;-81
2024/01/31 03:43:36;;;;;;;31.48;22.05;;;;;;;3.66;80.80;103054.06;4933254;29;20140;-81
2024/01/31 03:46:05;;;;;;;35.65;22.92;;;;;;;3.58;80.38;103057.72;4919319;29;20047;-82
2024/01/31 03:48:33;;;;;;;37.50;23.85;;;;;;;3.68;80.77;103062.78;4941744;29;20481;-82
2024/01/31 03:51:00;;;;;;;30.98;22.13;;;;;;;3.62;80.37;103048.03;4926029;29;20090;-81
2024/01/31 03:53:27;;;;;;;30.08;21.25;;;;;;;3.58;80.38;103041.09;4923604;29;20130;-81
2024/01/31 03:55:53;;;;;;;37.20;22.75;;;;;;;3.25;80.72;103000.63;4926219;28;20166;-81
2024/01/31 03:58:20;;;;;;;35.15;23.30;;;;;;;3.22;80.49;102989.28;4951859;28;20150;-80
2024/01/31 04:00:47;;;;;;;36.25;22.50;;;;;;;3.62;80.25;103059.41;4925274;29;20043;-82
2024/01/31 04:03:14;;;;;;;31.92;21.90;;;;;;;3.54;79.70;103045.53;4931755;29;20565;-81
2024/01/31 04:05:42;;;;;;;32.50;22.65;;;;;;;3.18;80.25;102979.75;4915475;29;20055;-81
2024/01/31 04:08:09;;;;;;;31.30;20.92;;;;;;;3.47;80.15;103022.06;4915522;29;20047;-82
2024/01/31 04:10:36;;;;;;;37.53;22.15;;;;;;;3.57;80.58;103050.75;4929994;29;20108;-81
2024/01/31 04:13:04;;;;;;;29.70;21.95;;;;;;;3.25;80.10;102990.13;4932966;29;20048;-80
2024/01/31 04:15:30;;;;;;;34.35;22.75;;;;;;;3.62;80.91;103058.53;4915596;29;20052;-81
2024/01/31 04:17:58;;;;;;;35.53;23.20;;;;;;;3.55;80.53;103047.28;4896657;29;20147;-81
2024/01/31 04:20:25;;;;;;;36.35;22.48;;;;;;;3.58;80.45;103047.22;4912238;29;20044;-80
2024/01/31 04:22:51;;;;;;;34.60;22.95;;;;;;;3.42;80.45;103022.16;4912094;29;20160;-81
2024/01/31 04:25:18;;;;;;;31.02;20.27;;;;;;;3.44;80.77;103017.75;4895778;29;20048;-81
2024/01/31 04:27:45;;;;;;;33.35;22.45;;;;;;;3.68;80.69;103057.53;4931032;29;20304;-81
2024/01/31 04:30:12;;;;;;;31.17;22.10;;;;;;;3.53;80.44;103028.06;4929192;29;20610;-80
2024/01/31 04:32:39;;;;;;;33.72;23.50;;;;;;;3.64;80.44;103044.47;4915676;29;20127;-81
2024/01/31 04:35:09;;;;;;;30.23;21.15;;;;;;;3.72;80.44;103053.97;4915101;29;20043;-81
2024/01/31 04:37:36;;;;;;;33.15;21.60;;;;;;;3.64;80.19;103046.22;4932116;29;20083;-81
2024/01/31 04:40:04;;;;;;;31.88;21.58;;;;;;;3.35;79.89;103010.94;4915258;29;20056;-81
2024/01/31 04:42:32;;;;;;;31.83;20.85;;;;;;;3.05;79.87;102959.03;4915149;29;20568;-80
2024/01/31 04:44:58;;;;;;;36.75;22.25;;;;;;;3.31;79.84;102992.63;4914712;29;20051;-81
2024/01/31 04:47:25;;;;;;;32.50;21.40;;;;;;;3.17;78.52;102961.41;4931934;29;20114;-80
2024/01/31 04:49:53;;;;;;;33.95;21.98;;;;;;;3.62;78.88;103040.16;4915183;29;20051;-80
2024/01/31 04:52:20;;;;;;;29.50;21.90;;;;;;;3.42;78.99;103020.41;4931510;29;20532;-81
2024/01/31 04:54:47;;;;;;;32.55;21.95;;;;;;;3.62;79.33;103063.78;4914480;29;20387;-80
2024/01/31 04:57:14;;;;;;;28.65;20.85;;;;;;;3.27;79.44;103004.09;4926707;29;20078;-80
2024/01/31 04:59:42;;;;;;;32.08;21.85;;;;;;;3.55;79.82;103060.41;4949626;28;20062;-82
2024/01/31 05:02:09;;;;;;;35.38;22.27;;;;;;;3.52;79.01;103057.88;4931877;29;20087;-80
2024/01/31 05:04:37;;;;;;;35.45;22.95;;;;;;;3.19;79.01;103007.72;4915077;29;20059;-80
2024/01/31 05:07:04;;;;;;;36.83;23.23;;;;;;;3.50;79.31;103048.28;4931793;29;20103;-81
2024/01/31 05:09:31;;;;;;;33.83;22.05;;;;;;;3.51;79.35;103056.13;4915195;29;20054;-81
2024/01/31 05:11:58;;;;;;;36.60;23.83;;;;;;;3.57;79.17;103061.25;4916245;29;20052;-81
2024/01/31 05:14:24;;;;;;;34.28;24.33;;;;;;;3.56;78.96;103061.28;4916441;29;20051;-80
2024/01/31 05:16:51;;;;;;;32.83;21.58;;;;;;;3.51;79.56;103071.88;4898902;29;20127;-80
2024/01/31 05:19:18;;;;;;;36.38;23.45;;;;;;;3.29;79.43;103036.44;4896502;29;20055;-81
2024/01/31 05:21:50;;;;;;;36.30;22.20;;;;;;;3.13;79.46;103023.63;4895927;29;20451;-81
2024/01/31 05:24:17;;;;;;;34.60;22.33;;;;;;;2.94;79.86;102998.63;4895383;29;20554;-82
2024/01/31 05:26:46;;;;;;;31.88;22.15;;;;;;;2.93;79.88;103004.72;4912299;29;20094;-81
2024/01/31 05:29:13;;;;;;;34.15;22.92;;;;;;;3.21;80.10;103063.69;4933295;29;20154;-80
2024/01/31 05:31:40;;;;;;;31.52;22.67;;;;;;;3.29;80.13;103075.81;4916093;29;20055;-80
2024/01/31 05:34:07;;;;;;;31.20;20.58;;;;;;;3.15;80.52;103057.69;4914223;29;20071;-82
2024/01/31 05:36:34;;;;;;;40.05;23.67;;;;;;;3.12;79.79;103037.63;4914414;29;20520;-80
2024/01/31 05:39:01;;;;;;;31.88;22.50;;;;;;;3.44;79.95;103078.13;4914429;29;20262;-80
2024/01/31 05:41:27;;;;;;;33.20;21.65;;;;;;;3.48;79.05;103085.06;4914025;29;20138;-81
2024/01/31 05:43:54;;;;;;;32.33;22.75;;;;;;;3.32;79.47;103065.25;4913753;29;20054;-80
2024/01/31 05:46:21;;;;;;;40.25;23.48;;;;;;;3.31;79.44;103069.63;4929840;29;20054;-80
2024/01/31 05:48:48;;;;;;;33.80;23.90;;;;;;;3.26;79.75;103049.63;4914103;29;20091;-81
2024/01/31 05:51:14;;;;;;;34.70;23.38;;;;;;;3.26;79.43;103060.13;4913936;29;20148;-82
2024/01/31 05:53:41;;;;;;;31.55;21.38;;;;;;;3.21;79.69;103060.22;4914035;29;20052;-81
2024/01/31 05:56:08;;;;;;;29.98;22.50;;;;;;;3.36;79.25;103087.94;4917556;28;20063;-81
2024/01/31 05:58:35;;;;;;;36.90;22.58;;;;;;;3.35;80.15;103080.94;4949885;28;20051;-80
2024/01/31 06:01:01;;;;;;;34.13;23.13;;;;;;;3.15;79.96;103041.94;4921010;29;20276;-81
2024/01/31 06:03:28;;;;;;;42.50;25.63;;;;;;;3.14;79.99;103056.81;4929345;29;20067;-82
2024/01/31 06:05:55;;;;;;;40.67;26.02;;;;;;;3.30;79.59;103072.28;4913103;29;20682;-80
2024/01/31 06:08:23;;;;;;;34.78;22.17;;;;;;;3.43;79.28;103069.41;4920180;29;20054;-83
2024/01/31 06:10:54;;;;;;;34.88;22.58;;;;;;;2.98;78.61;102982.75;4928411;29;20504;-81
2024/01/31 06:13:21;;;;;;;35.40;22.52;;;;;;;3.48;78.91;103074.56;4916585;29;20521;-82
2024/01/31 06:15:48;;;;;;;33.35;21.92;;;;;;;3.58;78.71;103081.38;4918806;29;20047;-83
2024/01/31 06:18:15;;;;;;;30.95;22.88;;;;;;;3.64;78.03;103085.63;4919708;29;20485;-82
2024/01/31 06:20:44;;;;;;;30.92;21.80;;;;;;;2.55;77.79;102898.78;4928896;29;20250;-82
2024/01/31 06:23:11;;;;;;;33.03;21.48;;;;;;;3.73;77.67;103088.06;4924035;29;20689;-81
2024/01/31 06:25:38;;;;;;;33.85;23.10;;;;;;;3.78;77.30;103090.59;4922907;29;20063;-81
2024/01/31 06:28:08;;;;;;;32.45;22.55;;;;;;;3.63;77.55;103070.75;4924903;29;20047;-82
2024/01/31 06:30:43;;;;;;;34.17;22.27;;;;;;;3.66;77.11;103075.09;4921310;29;20077;-81
2024/01/31 06:33:11;;;;;;;33.75;21.63;;;;;;;3.79;77.54;103097.59;4919841;29;20494;-83
2024/01/31 06:35:47;;;;;;;34.92;22.27;;;;;;;3.73;77.42;103092.47;4925299;29;20569;-82
2024/01/31 06:38:15;;;;;;;31.63;21.75;;;;;;;3.37;78.10;103026.63;4934012;29;20040;-81
2024/01/31 06:40:41;;;;;;;33.80;22.23;;;;;;;3.58;77.62;103062.13;4933721;29;20048;-80
2024/01/31 06:43:08;;;;;;;34.03;24.45;;;;;;;3.64;78.00;103067.22;4925745;29;20044;-85
2024/01/31 06:45:35;;;;;;;37.75;22.70;;;;;;;3.73;78.48;103092.47;4922805;29;20509;-80
2024/01/31 06:48:03;;;;;;;38.10;25.40;;;;;;;3.82;78.50;103097.53;4933552;29;20135;-82
2024/01/31 06:50:30;;;;;;;33.38;21.88;;;;;;;3.85;77.38;103089.56;4922959;29;20490;-82
2024/01/31 06:52:57;;;;;;;38.40;24.23;;;;;;;3.89;77.40;103098.28;4921329;29;20134;-80
2024/01/31 06:55:25;;;;;;;37.00;24.08;;;;;;;3.71;77.82;103075.84;4927359;29;20056;-81
2024/01/31 06:57:51;;;;;;;48.33;26.15;;;;;;;3.85;78.04;103097.47;4932609;29;20152;-82
2024/01/31 07:00:18;;;;;;;38.42;24.80;;;;;;;3.72;78.31;103057.44;4931088;29;20383;-81
2024/01/31 07:02:45;;;;;;;38.40;24.35;;;;;;;3.81;78.08;103074.75;4921306;29;20064;-82
2024/01/31 07:05:12;;;;;;;39.40;22.85;;;;;;;3.79;78.92;103076.59;4921991;29;20063;-82
2024/01/31 07:07:39;;;;;;;37.00;25.75;;;;;;;3.95;79.12;103114.75;4931330;29;20048;-82
2024/01/31 07:10:06;;;;;;;38.35;23.88;;;;;;;3.95;78.75;103121.78;4919159;29;20059;-82
2024/01/31 07:12:33;;;;;;;41.47;23.75;;;;;;;3.95;79.36;103117.38;4931131;29;20518;-80
2024/01/31 07:15:00;;;;;;;40.85;23.33;;;;;;;3.61;78.99;103064.66;4918586;29;20055;-81
2024/01/31 07:17:27;;;;;;;42.30;24.02;;;;;;;3.99;78.92;103121.69;4915814;29;20063;-81
2024/01/31 07:19:54;;;;;;;38.13;25.63;;;;;;;4.02;78.81;103116.38;4921106;29;20055;-80
2024/01/31 07:22:22;;;;;;;36.53;24.60;;;;;;;3.84;79.17;103085.22;4926113;29;20044;-81
2024/01/31 07:24:48;;;;;;;45.33;26.60;;;;;;;4.01;79.61;103116.41;4926239;29;20044;-81
2024/01/31 07:27:15;;;;;;;39.03;24.05;;;;;;;4.11;79.41;103119.72;4926670;29;20051;-81
2024/01/31 07:29:48;;;;;;;37.10;23.23;;;;;;;3.83;78.66;103063.31;4921075;29;20048;-80
2024/01/31 07:32:15;;;;;;;44.20;25.00;;;;;;;3.73;78.70;103039.91;4923793;29;20039;-81
2024/01/31 07:34:42;;;;;;;36.78;23.08;;;;;;;4.18;78.68;103101.13;4923814;29;20047;-80
2024/01/31 07:37:09;;;;;;;31.42;22.77;;;;;;;4.27;79.41;103118.44;4932239;29;20490;-81
2024/01/31 07:39:36;;;;;;;36.85;24.70;;;;;;;4.27;79.64;103121.09;4932418;29;20107;-82
2024/01/31 07:42:03;;;;;;;39.72;24.27;;;;;;;4.26;79.35;103125.47;4917320;29;20067;-81
2024/01/31 07:44:29;;;;;;;43.08;24.83;;;;;;;3.77;79.63;103041.59;4920207;29;20043;-82
2024/01/31 07:47:02;;;;;;;40.30;23.58;;;;;;;4.33;79.47;103134.09;4926300;29;20051;-80
2024/01/31 07:49:30;;;;;;;35.80;24.33;;;;;;;4.35;78.82;103121.78;4921692;29;20050;-81
2024/01/31 07:51:57;;;;;;;38.40;24.80;;;;;;;4.36;78.68;103099.84;4940495;29;20079;-80
2024/01/31 07:54:24;;;;;;;37.35;23.88;;;;;;;4.04;78.17;103051.47;4921718;29;20048;-81
2024/01/31 07:56:51;;;;;;;35.08;22.48;;;;;;;4.40;78.38;103122.56;4924767;29;20142;-82
2024/01/31 07:59:17;;;;;;;37.70;24.13;;;;;;;4.62;78.21;103140.47;4921354;29;20098;-82
2024/01/31 08:01:44;;;;;;;37.67;24.77;;;;;;;4.41;78.66;103108.50;4922685;29;20235;-81
2024/01/31 08:04:11;;;;;;;41.13;23.73;;;;;;;4.45;78.70;103115.41;4923642;29;20040;-82
2024/01/31 08:06:42;;;;;;;38.35;23.92;;;;;;;4.32;78.30;103079.78;4920292;29;20482;-81
2024/01/31 08:09:10;;;;;;;31.73;21.63;;;;;;;4.65;78.32;103141.25;4921045;29;20103;-81
2024/01/31 08:11:48;;;;;;;41.55;22.88;;;;;;;4.62;79.01;103132.59;4920873;29;20056;-81
2024/01/31 08:14:14;;;;;;;45.63;23.83;;;;;;;4.65;78.53;103138.63;4921092;29;20506;-80
2024/01/31 08:16:41;;;;;;;33.92;21.48;;;;;;;4.77;78.01;103150.63;4919039;29;20060;-81
2024/01/31 08:19:08;;;;;;;40.70;21.30;;;;;;;4.82;78.34;103138.22;4924167;29;20118;-81
2024/01/31 08:21:35;;;;;;;34.35;20.60;;;;;;;4.69;78.00;103110.50;4914995;29;20271;-80
2024/01/31 08:24:02;;;;;;;34.75;21.50;;;;;;;4.88;77.67;103135.47;4924608;29;20047;-82
2024/01/31 08:26:29;;;;;;;32.47;21.27;;;;;;;4.69;78.15;103102.59;4924842;29;20246;-80
2024/01/31 08:28:56;;;;;;;47.17;21.70;;;;;;;4.78;77.94;103109.38;4923842;29;20139;-84
2024/01/31 08:31:42;;;;;;;31.98;20.30;;;;;;;4.88;77.51;103098.59;4920352;29;20043;-80
2024/01/31 08:34:13;;;;;;;31.92;19.80;;;;;;;4.42;77.47;103020.81;4933173;29;20106;-82
2024/01/31 08:36:40;;;;;;;31.63;20.25;;;;;;;4.28;77.11;102986.94;4924762;29;20550;-81
2024/01/31 08:39:08;;;;;;;36.97;21.20;;;;;;;5.13;77.18;103130.44;4932114;29;20056;-82
2024/01/31 08:41:36;;;;;;;35.50;21.35;;;;;;;5.04;76.88;103100.84;4931475;29;20513;-82
2024/01/31 08:44:02;;;;;;;37.88;19.92;;;;;;;5.19;76.97;103108.31;4924575;29;20067;-82
2024/01/31 08:46:29;;;;;;;35.33;19.83;;;;;;;5.26;76.32;103123.06;4923508;29;20079;-82
2024/01/31 08:48:56;;;;;;;46.05;21.65;;;;;;;5.19;75.45;103108.31;4931333;29;20074;-82
2024/01/31 08:51:23;;;;;;;35.72;19.02;;;;;;;5.23;75.95;103107.34;4921256;29;20516;-82
2024/01/31 08:53:50;;;;;;;30.20;19.88;;;;;;;5.32;75.79;103122.06;4920989;29;20466;-81
2024/01/31 08:56:17;;;;;;;37.22;19.92;;;;;;;5.44;75.50;103137.53;4920268;29;20554;-81
2024/01/31 08:58:44;;;;;;;36.40;20.23;;;;;;;5.47;73.91;103131.31;4922243;29;20165;-81
2024/01/31 09:01:11;;;;;;;34.67;20.40;;;;;;;5.21;72.99;103079.34;4931282;29;20749;-81
2024/01/31 09:03:38;;;;;;;33.47;20.45;;;;;;;5.29;72.58;103088.78;4930652;29;20144;-82
2024/01/31 09:06:05;;;;;;;29.60;18.75;;;;;;;5.75;70.96;103134.94;4920330;29;20059;-81
2024/01/31 09:08:41;;;;;;;30.20;18.02;;;;;;;5.72;67.18;103119.19;4914659;29;20522;-82
2024/01/31 09:11:08;;;;;;;30.52;16.27;;;;;;;5.66;67.32;103082.47;4916528;29;20438;-81
2024/01/31 09:13:35;;;;;;;28.25;16.05;;;;;;;5.85;65.47;103103.91;4921988;29;20047;-81
2024/01/31 09:16:02;;;;;;;29.08;17.17;;;;;;;5.96;65.82;103106.25;4917754;29;20055;-81
2024/01/31 09:18:29;;;;;;;28.40;17.25;;;;;;;6.12;64.35;103128.63;4918127;29;20048;-81
2024/01/31 09:20:56;;;;;;;26.58;17.40;;;;;;;6.15;64.46;103119.75;4919275;29;20414;-79
2024/01/31 09:23:22;;;;;;;28.15;16.55;;;;;;;6.31;64.42;103125.41;4928259;29;20133;-80
2024/01/31 09:25:49;;;;;;;25.65;17.08;;;;;;;6.42;63.59;103139.13;4918330;29;20134;-80
2024/01/31 09:28:16;;;;;;;27.23;16.75;;;;;;;6.53;63.39;103139.69;4919381;29;20475;-80
2024/01/31 09:30:44;;;;;;;30.20;17.05;;;;;;;5.69;62.38;102981.38;4917204;29;20054;-81
2024/01/31 09:33:10;;;;;;;27.23;16.95;;;;;;;6.23;62.37;103061.47;4914734;29;20067;-83
2024/01/31 09:35:39;;;;;;;33.67;18.00;;;;;;;5.79;62.06;102977.53;4920775;29;20212;-82
2024/01/31 09:38:06;;;;;;;32.60;19.35;;;;;;;6.79;62.25;103130.91;4938530;29;20425;-82
2024/01/31 09:40:32;;;;;;;32.55;17.77;;;;;;;6.77;62.06;103126.59;4919873;29;20082;-81
2024/01/31 09:43:02;;;;;;;35.05;17.67;;;;;;;6.29;61.92;103029.63;4926780;29;20146;-83
2024/01/31 09:45:31;;;;;;;34.45;19.13;;;;;;;6.84;61.27;103099.06;4924110;29;20066;-82
2024/01/31 09:48:00;;;;;;;32.05;18.20;;;;;;;6.25;60.50;102980.53;4928388;29;20051;-81
2024/01/31 09:50:27;;;;;;;32.08;19.48;;;;;;;7.02;60.62;103076.47;4928694;29;20517;-81
2024/01/31 09:52:57;;;;;;;32.00;17.98;;;;;;;6.39;59.73;102957.19;4919200;29;20057;-81
2024/01/31 09:55:27;;;;;;;32.45;18.98;;;;;;;7.22;59.30;103079.25;4921362;29;20052;-81
2024/01/31 09:57:54;;;;;;;30.02;18.05;;;;;;;7.42;59.56;103081.19;4916025;29;20554;-82
2024/01/31 10:00:21;;;;;;;34.85;17.85;;;;;;;7.44;59.14;103063.50;4928717;29;20139;-82
2024/01/31 10:02:49;;;;;;;33.67;19.40;;;;;;;7.84;59.25;103096.41;4929237;29;20059;-82
2024/01/31 10:05:16;;;;;;;35.03;20.45;;;;;;;8.10;58.12;103107.78;4913365;29;20078;-82
2024/01/31 10:07:43;;;;;;;36.92;19.70;;;;;;;8.24;57.78;103110.75;4930877;29;20051;-82
2024/01/31 10:10:10;;;;;;;32.72;18.27;;;;;;;8.37;57.49;103110.25;4928584;29;20138;-83
2024/01/31 10:12:38;;;;;;;36.97;17.92;;;;;;;8.53;56.46;103114.06;4912578;29;20421;-83
2024/01/31 10:15:09;;;;;;;33.28;19.70;;;;;;;8.48;56.24;103087.75;4917579;29;20043;-82
2024/01/31 10:17:36;;;;;;;36.13;18.23;;;;;;;8.53;55.89;103074.34;4928282;29;20123;-82
2024/01/31 10:20:06;;;;;;;35.08;20.42;;;;;;;8.70;55.29;103093.03;4917586;29;20429;-83
2024/01/31 10:22:34;;;;;;;37.90;19.15;;;;;;;8.72;55.29;103096.50;4928647;29;20268;-82
2024/01/31 10:25:04;;;;;;;31.38;18.58;;;;;;;8.31;56.13;103027.53;4920099;29;20077;-81
2024/01/31 10:27:35;;;;;;;35.78;18.95;;;;;;;8.77;55.82;103091.88;4910345;29;20043;-81
2024/01/31 10:30:04;;;;;;;46.40;19.85;;;;;;;8.87;55.89;103108.22;4927711;29;20075;-83
2024/01/31 10:32:32;;;;;;;65.88;20.95;;;;;;;8.77;55.33;103089.22;4919321;29;20123;-82
2024/01/31 10:35:01;;;;;;;33.83;19.20;;;;;;;8.91;55.18;103101.03;4915944;29;20059;-81
2024/01/31 10:37:48;;;;;;;37.05;17.65;;;;;;;8.83;55.69;103090.72;4928142;29;20066;-82
2024/01/31 10:40:27;;;;;;;34.05;19.17;;;;;;;8.17;55.01;102966.38;4921493;29;20067;-82
2024/01/31 10:42:57;;;;;;;32.50;18.67;;;;;;;9.01;54.83;103091.78;4907266;29;20040;-81
2024/01/31 10:45:25;;;;;;;36.78;19.98;;;;;;;8.75;54.85;103032.78;4928610;29;20139;-81
2024/01/31 10:47:53;;;;;;;33.13;20.10;;;;;;;9.05;53.92;103076.59;4927453;29;20442;-82
2024/01/31 10:50:20;;;;;;;28.83;18.65;;;;;;;9.07;54.68;103078.25;4912625;29;20474;-81
2024/01/31 10:52:50;;;;;;;36.40;20.30;;;;;;;9.03;55.15;103047.53;4911550;29;20052;-82
2024/01/31 10:55:18;;;;;;;31.67;18.70;;;;;;;8.38;54.86;102926.72;4921634;29;20068;-82
2024/01/31 10:57:45;;;;;;;33.80;19.27;;;;;;;8.64;53.71;102937.09;4928347;29;20059;-81
2024/01/31 11:00:30;;;;;;;35.25;19.38;;;;;;;9.55;53.96;103049.63;4919483;29;20058;-81
2024/01/31 11:02:58;;;;;;;34.42;20.02;;;;;;;9.54;54.08;103021.38;4907651;29;20289;-82
2024/01/31 11:05:27;;;;;;;40.13;20.77;;;;;;;9.78;53.59;103029.97;4912262;29;20062;-82
2024/01/31 11:07:55;;;;;;;32.50;19.67;;;;;;;10.11;53.75;103064.69;4911598;29;20494;-80
2024/01/31 11:10:23;;;;;;;36.90;20.20;;;;;;;9.71;52.23;102986.13;4914612;29;20055;-81
2024/01/31 11:13:00;;;;;;;34.40;21.13;;;;;;;9.86;51.86;103017.25;4915250;29;20466;-82
2024/01/31 11:15:32;;;;;;;38.00;21.55;;;;;;;9.82;53.61;103034.22;4915337;29;20134;-82
2024/01/31 11:18:09;;;;;;;43.83;22.55;;;;;;;9.88;53.27;103044.56;4931500;29;20418;-81